createdAt,value
2018-06-15T00:00:01.349Z,4.93
2018-06-15T00:02:31.798Z,4.50
2018-06-15T00:05:00.723Z,5.07
2018-06-15T00:07:29.690Z,4.97
2018-06-15T00:09:59.157Z,5.13
2018-06-15T00:12:28.150Z,5.30
2018-06-15T00:14:57.071Z,4.70
2018-06-15T00:17:26.072Z,5.87
2018-06-15T00:19:54.992Z,6.77
2018-06-15T00:22:24.002Z,4.80
2018-06-15T00:24:52.947Z,3.90
2018-06-15T00:27:21.922Z,4.70
2018-06-15T00:29:50.852Z,4.33
2018-06-15T00:32:19.811Z,5.10
2018-06-15T00:34:48.762Z,5.83
2018-06-15T00:37:17.736Z,4.80
2018-06-15T00:39:46.694Z,4.73
2018-06-15T00:42:15.662Z,4.60
2018-06-15T00:44:44.583Z,4.57
2018-06-15T00:47:13.538Z,5.13
2018-06-15T00:49:42.463Z,4.23
2018-06-15T00:52:11.419Z,4.30
2018-06-15T00:54:40.363Z,4.33
2018-06-15T00:57:20.605Z,5.87
2018-06-15T00:59:49.531Z,4.70
2018-06-15T01:02:18.512Z,4.57
2018-06-15T01:04:47.450Z,4.80
2018-06-15T01:07:16.413Z,5.93
2018-06-15T01:09:45.334Z,4.67
2018-06-15T01:12:15.114Z,6.30
2018-06-15T01:14:44.062Z,4.93
2018-06-15T01:17:12.975Z,5.43
2018-06-15T01:19:41.957Z,4.87
2018-06-15T01:22:10.874Z,4.57
2018-06-15T01:24:39.824Z,4.50
2018-06-15T01:27:08.761Z,5.63
2018-06-15T01:29:37.724Z,4.83
2018-06-15T01:32:06.678Z,7.83
2018-06-15T01:34:35.650Z,5.40
2018-06-15T01:37:04.586Z,6.60
2018-06-15T01:39:33.541Z,5.20
2018-06-15T01:42:02.495Z,4.90
2018-06-15T01:44:31.523Z,5.00
2018-06-15T01:47:00.454Z,5.83
2018-06-15T01:49:29.398Z,5.07
2018-06-15T01:51:58.294Z,4.60
2018-06-15T01:54:27.228Z,5.77
2018-06-15T01:56:56.146Z,5.17
2018-06-15T01:59:25.110Z,4.90
2018-06-15T02:01:54.034Z,5.00
2018-06-15T02:04:23.002Z,4.93
2018-06-15T02:06:51.945Z,5.03
2018-06-15T02:09:20.944Z,5.60
2018-06-15T02:11:49.886Z,6.03
2018-06-15T02:14:18.839Z,3.70
2018-06-15T02:16:47.806Z,4.00
2018-06-15T02:19:16.786Z,4.23
2018-06-15T02:21:45.727Z,4.93
2018-06-15T02:24:14.715Z,4.20
2018-06-15T02:26:43.666Z,4.70
2018-06-15T02:29:12.682Z,4.00
2018-06-15T02:31:41.676Z,4.70
2018-06-15T02:34:10.664Z,4.50
2018-06-15T02:36:39.634Z,6.37
2018-06-15T02:39:10.573Z,3.70
2018-06-15T02:41:39.654Z,4.50
2018-06-15T02:44:08.884Z,6.90
2018-06-15T02:46:37.895Z,4.63
2018-06-15T02:49:07.085Z,4.43
2018-06-15T02:51:36.140Z,5.13
2018-06-15T02:54:05.167Z,4.30
2018-06-15T02:56:34.194Z,4.47
2018-06-15T02:59:03.235Z,4.97
2018-06-15T03:01:32.179Z,4.30
2018-06-15T03:04:01.204Z,6.90
2018-06-15T03:06:30.203Z,3.97
2018-06-15T03:08:59.202Z,4.77
2018-06-15T03:11:28.194Z,4.00
2018-06-15T03:13:57.202Z,4.70
2018-06-15T03:16:26.183Z,5.03
2018-06-15T03:18:55.234Z,4.93
2018-06-15T03:21:24.182Z,5.43
2018-06-15T03:23:53.185Z,4.93
2018-06-15T03:26:22.166Z,5.00
2018-06-15T03:28:51.160Z,4.87
2018-06-15T03:31:20.195Z,5.57
2018-06-15T03:33:49.253Z,5.20
2018-06-15T03:36:18.233Z,5.83
2018-06-15T03:38:47.197Z,5.27
2018-06-15T03:41:16.209Z,5.57
2018-06-15T03:43:45.195Z,5.43
2018-06-15T03:46:14.196Z,6.10
2018-06-15T03:48:43.143Z,5.30
2018-06-15T03:51:12.133Z,6.33
2018-06-15T03:53:41.098Z,5.87
2018-06-15T03:56:10.073Z,5.67
2018-06-15T03:58:39.066Z,10.10
2018-06-15T04:01:08.082Z,5.30
2018-06-15T04:03:37.063Z,5.10
2018-06-15T04:06:06.069Z,5.67
2018-06-15T04:08:35.023Z,4.70
2018-06-15T04:11:04.059Z,6.50
2018-06-15T04:13:33.012Z,6.60
2018-06-15T04:16:02.034Z,4.70
2018-06-15T04:18:31.034Z,5.00
2018-06-15T04:21:00.060Z,5.20
2018-06-15T04:23:29.338Z,4.93
2018-06-15T04:25:58.338Z,4.83
2018-06-15T04:28:27.292Z,4.83
2018-06-15T04:30:56.295Z,4.60
2018-06-15T04:33:25.300Z,5.10
2018-06-15T04:35:54.347Z,5.17
2018-06-15T04:38:23.336Z,6.20
2018-06-15T04:40:52.396Z,5.50
2018-06-15T04:43:21.363Z,4.70
2018-06-15T04:45:50.383Z,4.40
2018-06-15T04:48:19.374Z,5.00
2018-06-15T04:50:48.475Z,4.43
2018-06-15T04:53:17.426Z,5.00
2018-06-15T04:55:46.455Z,5.40
2018-06-15T04:58:15.397Z,6.77
2018-06-15T05:00:44.438Z,4.57
2018-06-15T05:03:15.027Z,6.20
2018-06-15T05:05:45.394Z,4.57
2018-06-15T05:08:14.381Z,4.50
2018-06-15T05:10:43.407Z,5.00
2018-06-15T05:13:12.451Z,6.23
2018-06-15T05:15:41.485Z,5.53
2018-06-15T05:18:10.443Z,4.53
2018-06-15T05:20:39.455Z,5.37
2018-06-15T05:23:08.417Z,5.67
2018-06-15T05:25:37.419Z,5.10
2018-06-15T05:28:06.718Z,5.20
2018-06-15T05:30:35.733Z,5.13
2018-06-15T05:33:04.864Z,5.17
2018-06-15T05:35:33.845Z,5.70
2018-06-15T05:38:02.817Z,6.20
2018-06-15T05:40:31.851Z,5.00
2018-06-15T05:43:00.842Z,5.27
2018-06-15T05:45:29.832Z,6.80
2018-06-15T05:47:58.828Z,5.10
2018-06-15T05:50:27.824Z,5.30
2018-06-15T05:52:56.783Z,6.30
2018-06-15T05:55:25.764Z,8.37
2018-06-15T05:57:54.813Z,6.20
2018-06-15T06:00:23.820Z,5.70
2018-06-15T06:02:52.834Z,5.40
2018-06-15T06:05:21.855Z,5.10
2018-06-15T06:07:50.848Z,5.53
2018-06-15T06:10:19.827Z,5.40
2018-06-15T06:12:48.779Z,5.23
2018-06-15T06:15:17.834Z,4.40
2018-06-15T06:17:46.842Z,5.53
2018-06-15T06:20:15.839Z,4.70
2018-06-15T06:22:44.779Z,4.57
2018-06-15T06:25:13.861Z,4.80
2018-06-15T06:27:42.815Z,4.40
2018-06-15T06:30:11.806Z,4.67
2018-06-15T06:32:40.782Z,4.40
2018-06-15T06:35:09.734Z,4.57
2018-06-15T06:37:38.729Z,5.20
2018-06-15T06:40:07.889Z,4.73
2018-06-15T06:42:36.916Z,4.90
2018-06-15T06:45:05.924Z,5.80
2018-06-15T06:47:34.946Z,4.53
2018-06-15T06:50:04.016Z,5.07
2018-06-15T06:52:33.017Z,4.60
2018-06-15T06:55:02.099Z,5.27
2018-06-15T06:57:31.115Z,5.20
2018-06-15T07:00:00.158Z,5.27
2018-06-15T07:02:29.166Z,5.87
2018-06-15T07:04:58.180Z,5.70
2018-06-15T07:07:27.159Z,6.43
2018-06-15T07:09:56.134Z,7.20
2018-06-15T07:12:25.133Z,5.37
2018-06-15T07:14:55.670Z,5.20
2018-06-15T07:17:24.926Z,5.07
2018-06-15T07:19:53.922Z,5.53
2018-06-15T07:22:22.917Z,6.20
2018-06-15T07:24:51.902Z,6.63
2018-06-15T07:27:21.298Z,5.10
2018-06-15T07:29:50.254Z,5.20
2018-06-15T07:32:19.254Z,4.87
2018-06-15T07:34:48.204Z,5.27
2018-06-15T07:37:17.221Z,5.60
2018-06-15T07:39:46.175Z,5.20
2018-06-15T07:42:15.171Z,5.50
2018-06-15T07:44:44.124Z,4.50
2018-06-15T07:47:13.106Z,3.80
2018-06-15T07:49:42.089Z,4.47
2018-06-15T07:52:11.082Z,5.33
2018-06-15T07:54:40.065Z,4.20
2018-06-15T07:57:09.086Z,4.97
2018-06-15T07:59:38.124Z,5.63
2018-06-15T08:02:07.082Z,4.67
2018-06-15T08:04:36.039Z,4.57
2018-06-15T08:07:05.046Z,5.30
2018-06-15T08:09:34.024Z,4.77
2018-06-15T08:12:03.019Z,4.33
2018-06-15T08:14:31.970Z,4.80
2018-06-15T08:17:00.977Z,4.20
2018-06-15T08:19:29.915Z,4.60
2018-06-15T08:21:58.929Z,3.50
2018-06-15T08:24:27.890Z,5.53
2018-06-15T08:26:56.930Z,3.87
2018-06-15T08:29:25.862Z,5.60
2018-06-15T08:31:54.879Z,4.30
2018-06-15T08:34:23.856Z,4.27
2018-06-15T08:36:52.885Z,5.60
2018-06-15T08:39:21.853Z,4.13
2018-06-15T08:41:50.867Z,5.40
2018-06-15T08:44:19.843Z,4.33
2018-06-15T08:46:48.837Z,5.00
2018-06-15T08:49:17.792Z,4.93
2018-06-15T08:51:46.827Z,4.97
2018-06-15T08:54:15.806Z,3.50
2018-06-15T08:56:44.835Z,4.57
2018-06-15T08:59:13.807Z,4.10
2018-06-15T09:01:42.806Z,3.70
2018-06-15T09:04:11.779Z,4.20
2018-06-15T09:06:40.770Z,4.33
2018-06-15T09:09:09.982Z,5.43
2018-06-15T09:11:38.957Z,6.70
2018-06-15T09:14:07.922Z,4.90
2018-06-15T09:16:36.966Z,11.60
2018-06-15T09:19:05.935Z,6.57
2018-06-15T09:21:34.937Z,4.67
2018-06-15T09:24:03.906Z,5.10
2018-06-15T09:26:32.896Z,5.40
2018-06-15T09:29:01.867Z,5.13
2018-06-15T09:31:30.902Z,4.87
2018-06-15T09:33:59.967Z,5.20
2018-06-15T09:36:28.940Z,4.70
2018-06-15T09:38:57.961Z,5.43
2018-06-15T09:41:26.960Z,4.40
2018-06-15T09:43:56.324Z,4.23
2018-06-15T09:46:25.347Z,3.97
2018-06-15T09:48:54.367Z,5.53
2018-06-15T09:51:23.351Z,3.90
2018-06-15T09:53:52.428Z,4.33
2018-06-15T09:56:21.406Z,4.90
2018-06-15T09:58:53.888Z,4.23
2018-06-15T10:01:22.921Z,4.13
2018-06-15T10:03:51.930Z,3.97
2018-06-15T10:06:20.931Z,4.00
2018-06-15T10:08:49.955Z,5.40
2018-06-15T10:11:18.906Z,5.70
2018-06-15T10:13:47.899Z,3.93
2018-06-15T10:16:16.875Z,3.40
2018-06-15T10:18:45.866Z,4.60
2018-06-15T10:21:14.830Z,3.47
2018-06-15T10:23:43.806Z,4.07
2018-06-15T10:26:12.806Z,3.40
2018-06-15T10:28:41.816Z,3.37
2018-06-15T10:31:10.766Z,3.67
2018-06-15T10:33:39.857Z,4.60
2018-06-15T10:36:08.877Z,3.83
2018-06-15T10:38:37.863Z,4.30
2018-06-15T10:41:06.819Z,3.43
2018-06-15T10:43:35.842Z,4.77
2018-06-15T10:46:04.847Z,3.63
2018-06-15T10:48:33.864Z,3.90
2018-06-15T10:51:02.830Z,5.87
2018-06-15T10:53:31.942Z,3.80
2018-06-15T10:56:00.898Z,3.90
2018-06-15T10:58:29.906Z,4.40
2018-06-15T11:00:58.882Z,4.50
2018-06-15T11:03:27.880Z,5.03
2018-06-15T11:05:56.838Z,4.30
2018-06-15T11:08:25.845Z,3.80
2018-06-15T11:10:54.798Z,5.00
2018-06-15T11:13:23.785Z,5.10
2018-06-15T11:15:52.766Z,5.77
2018-06-15T11:18:21.781Z,4.30
2018-06-15T11:20:50.738Z,4.43
2018-06-15T11:23:19.778Z,3.73
2018-06-15T11:25:48.730Z,4.07
2018-06-15T11:28:17.722Z,4.43
2018-06-15T11:30:47.039Z,3.90
2018-06-15T11:33:16.078Z,3.83
2018-06-15T11:35:45.065Z,3.50
2018-06-15T11:38:14.118Z,4.10
2018-06-15T11:40:43.081Z,4.03
2018-06-15T11:43:12.115Z,3.80
2018-06-15T11:45:41.117Z,4.53
2018-06-15T11:48:10.145Z,3.80
2018-06-15T11:50:39.114Z,4.40
2018-06-15T11:53:08.145Z,3.40
2018-06-15T11:55:37.155Z,3.70
2018-06-15T11:58:06.207Z,4.07
2018-06-15T12:00:35.200Z,3.87
2018-06-15T12:03:04.207Z,3.97
2018-06-15T12:05:33.212Z,4.20
2018-06-15T12:08:02.231Z,4.50
2018-06-15T12:10:31.216Z,4.00
2018-06-15T12:13:00.205Z,3.77
2018-06-15T12:15:29.175Z,4.10
2018-06-15T12:17:58.194Z,4.47
2018-06-15T12:20:27.157Z,3.70
2018-06-15T12:22:56.378Z,3.90
2018-06-15T12:25:25.347Z,4.17
2018-06-15T12:27:54.346Z,3.43
2018-06-15T12:30:23.326Z,3.53
2018-06-15T12:32:52.336Z,3.70
2018-06-15T12:35:21.286Z,5.40
2018-06-15T12:37:50.235Z,2.87
2018-06-15T12:40:19.254Z,3.47
2018-06-15T12:42:48.210Z,3.53
2018-06-15T12:45:17.222Z,3.43
2018-06-15T12:47:46.176Z,6.53
2018-06-15T12:50:15.179Z,2.77
2018-06-15T12:52:44.114Z,3.40
2018-06-15T12:55:13.106Z,3.40
2018-06-15T12:57:42.095Z,3.83
2018-06-15T13:00:11.145Z,10.60
2018-06-15T13:02:40.155Z,3.53
2018-06-15T13:05:09.160Z,5.37
2018-06-15T13:07:38.105Z,5.03
2018-06-15T13:10:07.111Z,8.73
2018-06-15T13:12:36.064Z,7.73
2018-06-15T13:15:05.067Z,3.20
2018-06-15T13:17:34.022Z,3.13
2018-06-15T13:20:02.998Z,2.63
2018-06-15T13:22:31.957Z,3.03
2018-06-15T13:25:00.942Z,2.90
2018-06-15T13:27:29.943Z,2.50
2018-06-15T13:29:58.975Z,2.60
2018-06-15T13:32:27.958Z,2.43
2018-06-15T13:34:56.974Z,2.60
2018-06-15T13:37:25.947Z,2.97
2018-06-15T13:39:55.439Z,3.20
2018-06-15T13:42:24.654Z,3.83
2018-06-15T13:44:53.677Z,2.57
2018-06-15T13:47:22.654Z,2.87
2018-06-15T13:49:51.654Z,3.10
2018-06-15T13:52:20.626Z,2.80
2018-06-15T13:54:49.674Z,2.67
2018-06-15T13:57:18.705Z,2.77
2018-06-15T13:59:47.750Z,2.80
2018-06-15T14:02:16.715Z,2.70
2018-06-15T14:04:45.746Z,2.83
2018-06-15T14:07:14.694Z,3.47
2018-06-15T14:09:43.728Z,2.40
2018-06-15T14:12:12.702Z,3.43
2018-06-15T14:14:41.708Z,2.50
2018-06-15T14:17:10.767Z,2.87
2018-06-15T14:19:39.780Z,2.40
2018-06-15T14:22:08.747Z,3.07
2018-06-15T14:24:37.790Z,2.17
2018-06-15T14:27:06.739Z,2.40
2018-06-15T14:29:35.786Z,2.67
2018-06-15T14:32:04.754Z,2.37
2018-06-15T14:34:33.763Z,1.90
2018-06-15T14:37:02.811Z,2.83
2018-06-15T14:39:31.913Z,2.63
2018-06-15T14:42:00.904Z,2.73
2018-06-15T14:44:29.895Z,2.67
2018-06-15T14:46:58.886Z,2.57
2018-06-15T14:49:27.930Z,2.10
2018-06-15T14:51:57.008Z,2.80
2018-06-15T14:54:26.020Z,3.50
2018-06-15T14:56:55.006Z,2.43
2018-06-15T14:59:24.016Z,2.50
2018-06-15T15:01:52.974Z,2.33
2018-06-15T15:04:21.993Z,2.90
2018-06-15T15:06:50.985Z,2.20
2018-06-15T15:09:19.994Z,1.97
2018-06-15T15:11:48.955Z,2.13
2018-06-15T15:14:17.974Z,2.23
2018-06-15T15:16:46.930Z,2.70
2018-06-15T15:19:16.009Z,2.23
2018-06-15T15:21:44.949Z,3.40
2018-06-15T15:24:13.943Z,2.03
2018-06-15T15:26:42.889Z,1.80
2018-06-15T15:29:11.888Z,1.87
2018-06-15T15:31:40.876Z,1.80
2018-06-15T15:34:09.913Z,3.33
2018-06-15T15:36:38.895Z,1.77
2018-06-15T15:39:09.959Z,2.17
2018-06-15T15:41:38.984Z,1.90
2018-06-15T15:44:08.525Z,1.57
2018-06-15T15:46:37.546Z,3.13
2018-06-15T15:49:06.579Z,1.43
2018-06-15T15:51:35.546Z,1.57
2018-06-15T15:54:04.518Z,2.13
2018-06-15T15:56:33.534Z,1.50
2018-06-15T15:59:02.507Z,1.70
2018-06-15T16:01:31.546Z,1.83
2018-06-15T16:04:00.547Z,1.83
2018-06-15T16:06:29.526Z,2.00
2018-06-15T16:08:58.520Z,1.70
2018-06-15T16:11:27.515Z,1.43
2018-06-15T16:13:56.521Z,1.80
2018-06-15T16:16:25.506Z,1.57
2018-06-15T16:18:54.502Z,1.70
2018-06-15T16:21:23.496Z,2.13
2018-06-15T16:23:52.507Z,1.53
2018-06-15T16:26:21.520Z,1.70
2018-06-15T16:28:50.486Z,1.63
2018-06-15T16:31:19.506Z,1.90
2018-06-15T16:33:48.628Z,1.60
2018-06-15T16:36:17.629Z,1.53
2018-06-15T16:38:46.595Z,1.83
2018-06-15T16:41:15.638Z,2.00
2018-06-15T16:43:44.651Z,1.73
2018-06-15T16:46:13.642Z,2.07
2018-06-15T16:48:42.860Z,1.70
2018-06-15T16:51:11.876Z,1.80
2018-06-15T16:53:41.194Z,2.27
2018-06-15T16:56:10.215Z,1.90
2018-06-15T16:58:39.186Z,3.30
2018-06-15T17:01:08.187Z,2.30
2018-06-15T17:03:37.198Z,1.90
2018-06-15T17:06:06.237Z,2.27
2018-06-15T17:08:35.171Z,2.13
2018-06-15T17:11:04.182Z,1.73
2018-06-15T17:13:33.127Z,1.70
2018-06-15T17:16:02.139Z,1.87
2018-06-15T17:18:31.129Z,2.10
2018-06-15T17:21:00.167Z,2.70
2018-06-15T17:23:29.160Z,1.70
2018-06-15T17:25:58.143Z,2.23
2018-06-15T17:28:27.093Z,2.73
2018-06-15T17:30:56.127Z,1.83
2018-06-15T17:33:25.135Z,1.80
2018-06-15T17:35:54.210Z,1.90
2018-06-15T17:38:23.402Z,1.80
2018-06-15T17:40:52.418Z,1.90
2018-06-15T17:43:21.389Z,2.40
2018-06-15T17:45:50.513Z,1.80
2018-06-15T17:48:19.486Z,1.87
2018-06-15T17:50:48.506Z,2.00
2018-06-15T17:53:17.528Z,2.47
2018-06-15T17:55:46.566Z,2.27
2018-06-15T17:58:15.554Z,1.80
2018-06-15T18:00:44.565Z,2.20
2018-06-15T18:03:13.537Z,1.80
2018-06-15T18:05:42.585Z,2.10
2018-06-15T18:08:11.630Z,2.17
2018-06-15T18:10:40.675Z,2.20
2018-06-15T18:13:09.627Z,2.57
2018-06-15T18:15:38.698Z,2.70
2018-06-15T18:18:07.664Z,2.40
2018-06-15T18:20:36.669Z,3.33
2018-06-15T18:23:05.637Z,3.10
2018-06-15T18:25:34.667Z,2.93
2018-06-15T18:28:03.634Z,4.23
2018-06-15T18:30:32.663Z,2.70
2018-06-15T18:33:01.917Z,3.10
2018-06-15T18:35:30.965Z,3.10
2018-06-15T18:37:59.954Z,3.10
2018-06-15T18:40:28.974Z,3.13
2018-06-15T18:42:58.002Z,3.40
2018-06-15T18:45:26.975Z,3.60
2018-06-15T18:47:56.005Z,3.90
2018-06-15T18:50:24.985Z,3.63
2018-06-15T18:52:54.007Z,4.30
2018-06-15T18:55:22.999Z,5.40
2018-06-15T18:57:52.113Z,3.77
2018-06-15T19:00:21.086Z,3.00
2018-06-15T19:02:50.075Z,3.60
2018-06-15T19:05:19.055Z,4.30
2018-06-15T19:07:48.088Z,4.63
2018-06-15T19:10:17.062Z,3.30
2018-06-15T19:12:46.069Z,3.40
2018-06-15T19:15:15.022Z,3.70
2018-06-15T19:17:44.023Z,5.47
2018-06-15T19:20:13.002Z,6.23
2018-06-15T19:22:42.030Z,4.23
2018-06-15T19:25:11.056Z,3.63
2018-06-15T19:27:40.133Z,4.30
2018-06-15T19:30:09.126Z,3.47
2018-06-15T19:32:38.142Z,4.23
2018-06-15T19:35:07.155Z,3.77
2018-06-15T19:37:36.166Z,3.47
2018-06-15T19:40:05.194Z,3.80
2018-06-15T19:42:34.344Z,3.80
2018-06-15T19:45:03.462Z,3.80
2018-06-15T19:47:32.478Z,4.60
2018-06-15T19:50:01.426Z,3.67
2018-06-15T19:52:30.454Z,4.77
2018-06-15T19:54:59.634Z,4.27
2018-06-15T19:57:28.636Z,4.63
2018-06-15T19:59:57.597Z,6.30
2018-06-15T20:02:26.659Z,5.50
2018-06-15T20:04:55.662Z,5.20
2018-06-15T20:07:24.702Z,4.20
2018-06-15T20:09:53.684Z,4.30
2018-06-15T20:12:22.721Z,4.30
2018-06-15T20:14:51.688Z,4.40
2018-06-15T20:17:20.746Z,3.90
2018-06-15T20:19:49.759Z,3.70
2018-06-15T20:22:18.787Z,5.87
2018-06-15T20:24:47.810Z,5.00
2018-06-15T20:27:16.835Z,5.13
2018-06-15T20:29:45.877Z,4.50
2018-06-15T20:32:14.890Z,5.30
2018-06-15T20:34:43.856Z,5.10
2018-06-15T20:37:12.857Z,4.20
2018-06-15T20:39:41.833Z,5.37
2018-06-15T20:42:10.838Z,6.47
2018-06-15T20:44:39.803Z,5.17
2018-06-15T20:47:08.823Z,5.10
2018-06-15T20:49:37.789Z,5.40
2018-06-15T20:52:07.299Z,6.90
2018-06-15T20:54:36.357Z,7.73
2018-06-15T20:57:05.512Z,7.30
2018-06-15T20:59:34.479Z,6.37
2018-06-15T21:02:03.524Z,7.17
2018-06-15T21:04:32.523Z,7.57
2018-06-15T21:07:01.570Z,7.80
2018-06-15T21:09:30.551Z,6.57
2018-06-15T21:11:59.592Z,6.13
2018-06-15T21:14:28.562Z,4.67
2018-06-15T21:16:57.594Z,4.63
2018-06-15T21:19:26.595Z,5.47
2018-06-15T21:21:55.654Z,5.20
2018-06-15T21:24:24.613Z,4.77
2018-06-15T21:26:53.654Z,5.00
2018-06-15T21:29:22.645Z,4.50
2018-06-15T21:31:51.681Z,4.57
2018-06-15T21:34:20.694Z,5.37
2018-06-15T21:36:49.629Z,5.53
2018-06-15T21:39:18.653Z,4.80
2018-06-15T21:41:47.611Z,4.30
2018-06-15T21:44:16.590Z,4.70
2018-06-15T21:46:45.567Z,5.27
2018-06-15T21:49:14.590Z,4.33
2018-06-15T21:51:43.546Z,4.30
2018-06-15T21:54:12.534Z,4.13
2018-06-15T21:56:41.496Z,4.20
2018-06-15T21:59:10.512Z,5.80
2018-06-15T22:01:39.457Z,4.30
2018-06-15T22:04:09.175Z,4.83
2018-06-15T22:06:38.156Z,4.33
2018-06-15T22:09:08.667Z,4.40
2018-06-15T22:11:37.646Z,4.90
2018-06-15T22:14:06.661Z,5.07
2018-06-15T22:16:40.842Z,4.90
2018-06-15T22:19:09.975Z,4.17
2018-06-15T22:21:38.956Z,5.67
2018-06-15T22:24:07.970Z,4.70
2018-06-15T22:26:36.934Z,5.57
2018-06-15T22:29:05.946Z,4.17
2018-06-15T22:31:34.942Z,4.80
2018-06-15T22:34:03.977Z,4.30
2018-06-15T22:36:32.953Z,4.60
2018-06-15T22:39:01.930Z,6.47
2018-06-15T22:41:30.883Z,4.30
2018-06-15T22:43:59.920Z,4.97
2018-06-15T22:46:28.875Z,4.93
2018-06-15T22:48:57.863Z,5.30
2018-06-15T22:51:26.840Z,5.00
2018-06-15T22:53:55.876Z,4.87
2018-06-15T22:56:24.850Z,4.87
2018-06-15T22:58:53.898Z,4.97
2018-06-15T23:01:22.876Z,4.43
2018-06-15T23:03:51.867Z,4.30
2018-06-15T23:06:20.838Z,5.43
2018-06-15T23:08:49.852Z,5.97
2018-06-15T23:11:18.811Z,5.50
2018-06-15T23:13:47.825Z,4.70
2018-06-15T23:16:16.770Z,6.30
2018-06-15T23:18:45.762Z,4.60
2018-06-15T23:21:14.753Z,4.93
2018-06-15T23:23:43.767Z,4.97
2018-06-15T23:26:12.767Z,5.37
2018-06-15T23:28:41.763Z,4.53
2018-06-15T23:31:10.747Z,4.93
2018-06-15T23:33:39.852Z,4.73
2018-06-15T23:36:08.846Z,5.10
2018-06-15T23:38:37.870Z,4.63
2018-06-15T23:41:06.851Z,4.97
2018-06-15T23:43:35.884Z,5.67
2018-06-15T23:46:04.846Z,5.10
2018-06-15T23:48:33.880Z,5.33
2018-06-15T23:51:03.105Z,5.30
2018-06-15T23:53:32.153Z,5.40
2018-06-15T23:56:01.143Z,4.53
2018-06-15T23:58:30.143Z,6.67
